Time;durP1;ratioP1;P1;durP2;ratioP2;P2;SDS_P1;SDS_P2;PMS_P1;PMS_P2;Temp;Humidity;BMP_temperature;BMP_pressure;BME280_temperature;BME280_humidity;BME280_pressure;Samples;Min_cycle;Max_cycle;Signal;HPM_P1;HPM_P2
2023/03/24 00:01:19;;;;;;;10.70;6.80;;;;;;;;;;5051607;28;20040;-62
2023/03/24 00:03:47;;;;;;;11.02;6.10;;;;;;;;;;5049203;28;20048;-63
2023/03/24 00:06:13;;;;;;;14.13;6.30;;;;;;;;;;5042042;28;20109;-63
2023/03/24 00:08:40;;;;;;;11.25;6.40;;;;;;;;;;5033430;28;20090;-62
2023/03/24 00:11:08;;;;;;;11.68;6.88;;;;;;;;;;5033115;28;20045;-63
2023/03/24 00:13:38;;;;;;;11.88;6.05;;;;;;;;;;5024237;28;20045;-62
2023/03/24 00:16:09;;;;;;;11.00;6.53;;;;;;;;;;5041001;28;20033;-62
2023/03/24 00:18:36;;;;;;;9.60;5.75;;;;;;;;;;5052171;28;20372;-63
2023/03/24 00:21:03;;;;;;;11.20;6.43;;;;;;;;;;5042848;28;20041;-63
2023/03/24 00:23:31;;;;;;;11.63;7.18;;;;;;;;;;5039717;28;20037;-63
2023/03/24 00:26:01;;;;;;;9.70;6.50;;;;;;;;;;5039551;28;20069;-63
2023/03/24 00:28:28;;;;;;;9.98;6.25;;;;;;;;;;5049270;28;20045;-63
2023/03/24 00:30:54;;;;;;;13.20;6.03;;;;;;;;;;5032499;28;20533;-62
2023/03/24 00:33:21;;;;;;;9.35;5.72;;;;;;;;;;5034907;28;20049;-62
2023/03/24 00:35:47;;;;;;;8.65;5.65;;;;;;;;;;5043128;28;20029;-62
2023/03/24 00:38:13;;;;;;;8.93;6.65;;;;;;;;;;5039824;28;20446;-63
2023/03/24 00:40:44;;;;;;;13.93;7.00;;;;;;;;;;5050616;28;20037;-62
2023/03/24 00:43:12;;;;;;;10.25;6.15;;;;;;;;;;5043850;28;20059;-62
2023/03/24 00:45:44;;;;;;;10.27;5.53;;;;;;;;;;5041226;28;20418;-63
2023/03/24 00:48:11;;;;;;;10.80;5.90;;;;;;;;;;5044467;28;20041;-63
2023/03/24 00:50:37;;;;;;;11.00;6.97;;;;;;;;;;5048517;28;20041;-62
2023/03/24 00:53:03;;;;;;;10.43;5.80;;;;;;;;;;5036615;28;20076;-62
2023/03/24 00:55:30;;;;;;;10.85;5.18;;;;;;;;;;5040936;28;20121;-63
2023/03/24 00:57:59;;;;;;;7.60;4.88;;;;;;;;;;5056314;28;20037;-62
2023/03/24 01:00:26;;;;;;;7.47;5.13;;;;;;;;;;5025583;28;20037;-62
2023/03/24 01:02:54;;;;;;;10.07;5.32;;;;;;;;;;5038581;28;20463;-63
2023/03/24 01:05:21;;;;;;;8.63;4.93;;;;;;;;;;5049911;28;20118;-62
2023/03/24 01:07:51;;;;;;;11.40;5.68;;;;;;;;;;5045599;28;20333;-62
2023/03/24 01:10:18;;;;;;;11.15;5.35;;;;;;;;;;5045102;28;20402;-62
2023/03/24 01:12:44;;;;;;;8.93;4.93;;;;;;;;;;5047093;28;20056;-63
2023/03/24 01:15:22;;;;;;;11.57;5.35;;;;;;;;;;5044652;28;20114;-62
2023/03/24 01:17:48;;;;;;;8.23;4.90;;;;;;;;;;5040388;28;20045;-62
2023/03/24 01:20:14;;;;;;;8.38;5.45;;;;;;;;;;5044538;28;20512;-62
2023/03/24 01:22:43;;;;;;;9.93;4.95;;;;;;;;;;5046957;28;20230;-62
2023/03/24 01:25:22;;;;;;;10.82;5.80;;;;;;;;;;5049898;28;20084;-62
2023/03/24 01:27:49;;;;;;;10.38;4.95;;;;;;;;;;5050403;28;20041;-62
2023/03/24 01:30:17;;;;;;;9.15;5.22;;;;;;;;;;5039297;28;20131;-63
2023/03/24 01:32:43;;;;;;;10.30;5.53;;;;;;;;;;5028980;28;20051;-62
2023/03/24 01:35:10;;;;;;;9.25;5.07;;;;;;;;;;5051347;28;20458;-63
2023/03/24 01:37:36;;;;;;;8.15;5.10;;;;;;;;;;5050425;28;20068;-63
2023/03/24 01:40:07;;;;;;;8.25;5.03;;;;;;;;;;5049023;28;20040;-62
2023/03/24 01:42:33;;;;;;;9.10;5.55;;;;;;;;;;5044066;28;20116;-63
2023/03/24 01:45:01;;;;;;;9.18;4.90;;;12.90;99.90;;;;;;5044606;28;20075;-62
2023/03/24 01:47:27;;;;;;;7.90;5.20;;;;;;;;;;5032155;28;20468;-62
2023/03/24 01:49:56;;;;;;;7.03;4.75;;;;;;;;;;5045077;28;20630;-62
2023/03/24 01:52:30;;;;;;;8.75;5.38;;;;;;;;;;5045762;28;20174;-63
2023/03/24 01:54:58;;;;;;;9.13;5.43;;;;;;;;;;5046415;28;20069;-62
2023/03/24 01:57:27;;;;;;;10.40;4.75;;;;;;;;;;5047222;28;20041;-62
2023/03/24 01:59:55;;;;;;;8.02;4.80;;;;;;;;;;5029265;28;20068;-63
2023/03/24 02:02:21;;;;;;;8.63;4.95;;;;;;;;;;5045627;28;20037;-62
2023/03/24 02:04:53;;;;;;;7.97;5.03;;;;;;;;;;5037854;28;20395;-62
2023/03/24 02:07:19;;;;;;;8.02;5.28;;;;;;;;;;5045185;28;20506;-63
2023/03/24 02:09:47;;;;;;;8.27;5.40;;;;;;;;;;5045178;28;20128;-62
2023/03/24 02:12:13;;;;;;;9.65;5.55;;;;;;;;;;5041156;28;20075;-63
2023/03/24 02:14:40;;;;;;;6.15;4.88;;;;;;;;;;5043262;28;20037;-63
2023/03/24 02:17:06;;;;;;;7.15;4.88;;;;;;;;;;5041141;28;20037;-62
2023/03/24 02:19:51;;;;;;;10.38;4.88;;;;;;;;;;5045216;28;20111;-63
2023/03/24 02:22:28;;;;;;;7.55;5.00;;;;;;;;;;5047054;28;20080;-62
2023/03/24 02:25:13;;;;;;;9.77;5.63;;;;;;;;;;5050022;28;20092;-63
2023/03/24 02:27:58;;;;;;;8.30;5.43;;;;;;;;;;5048801;28;20053;-63
2023/03/24 02:30:28;;;;;;;6.40;5.28;;;;;;;;;;5049544;28;20120;-63
2023/03/24 02:32:57;;;;;;;10.82;5.20;;;;;;;;;;5039311;28;20403;-62
2023/03/24 02:35:29;;;;;;;9.43;5.78;;;;;;;;;;5020614;28;20041;-63
2023/03/24 02:38:11;;;;;;;9.23;5.60;;;;;;;;;;5045393;28;20467;-63
2023/03/24 02:40:51;;;;;;;8.30;5.50;;;;;;;;;;5044721;28;20039;-62
2023/03/24 02:43:41;;;;;;;6.78;5.05;;;;;;;;;;5019950;28;20065;-62
2023/03/24 02:46:24;;;;;;;10.82;5.88;;;;;;;;;;4994189;28;20383;-62
2023/03/24 02:48:53;;;;;;;9.65;5.80;;;;;;;;;;5049322;28;20087;-62
2023/03/24 02:51:31;;;;;;;6.30;5.00;;;;;;;;;;5044161;28;20119;-62
2023/03/24 02:54:00;;;;;;;7.38;5.63;;;;;;;;;;5019406;28;20061;-63
2023/03/24 02:56:28;;;;;;;6.95;4.25;;;;;;;;;;5050283;28;20079;-62
2023/03/24 02:58:57;;;;;;;7.32;4.35;;;;;;;;;;5030530;28;20036;-63
2023/03/24 03:01:53;;;;;;;5.13;4.32;;;11.50;99.90;;;;;;5014402;28;20076;-62
2023/03/24 03:04:28;;;;;;;6.80;3.83;;;11.50;99.90;;;;;;5033784;28;20053;-62
2023/03/24 03:06:58;;;;;;;9.32;4.57;;;11.50;99.90;;;;;;5043936;28;20076;-63
2023/03/24 03:09:26;;;;;;;8.15;4.25;;;;;;;;;;5032466;28;20056;-63
2023/03/24 03:11:54;;;;;;;5.57;3.72;;;;;;;;;;5048200;28;20395;-63
2023/03/24 03:14:29;;;;;;;8.70;4.00;;;;;;;;;;5044975;28;20041;-62
2023/03/24 03:17:00;;;;;;;4.47;2.90;;;;;;;;;;5045725;28;20029;-62
2023/03/24 03:19:32;;;;;;;6.55;3.40;;;;;;;;;;5040618;28;20128;-62
2023/03/24 03:22:00;;;;;;;4.15;3.17;;;;;;;;;;5047333;28;20590;-62
2023/03/24 03:24:32;;;;;;;6.00;2.63;;;;;;;;;;5028359;28;20065;-63
2023/03/24 03:27:01;;;;;;;4.90;2.97;;;;;;;;;;5049196;28;20048;-62
2023/03/24 03:29:28;;;;;;;6.47;2.40;;;;;;;;;;5047428;28;20223;-62
2023/03/24 03:32:06;;;;;;;6.35;2.40;;;;;;;;;;5047843;28;20072;-63
2023/03/24 03:34:55;;;;;;;6.95;2.65;;;;;;;;;;5045309;28;20044;-62
2023/03/24 03:37:24;;;;;;;8.18;3.75;;;;;;;;;;5021856;28;20053;-62
2023/03/24 03:40:03;;;;;;;11.85;2.45;;;;;;;;;;5046952;28;20120;-63
2023/03/24 03:42:29;;;;;;;7.55;2.55;;;;;;;;;;5034413;28;20049;-62
2023/03/24 03:44:55;;;;;;;7.15;2.28;;;;;;;;;;5053298;28;20041;-62
2023/03/24 03:47:22;;;;;;;10.90;2.78;;;;;;;;;;5053073;28;20083;-63
2023/03/24 03:49:48;;;;;;;12.43;3.28;;;;;;;;;;5033765;28;20076;-63
2023/03/24 03:52:15;;;;;;;12.88;3.10;;;;;;;;;;5051911;28;20048;-62
2023/03/24 03:54:42;;;;;;;8.73;3.47;;;;;;;;;;5050762;28;20029;-63
2023/03/24 03:57:10;;;;;;;14.25;3.58;;;;;;;;;;5053926;28;20124;-63
2023/03/24 03:59:37;;;;;;;10.05;3.17;;;;;;;;;;5030832;28;20083;-62
2023/03/24 04:02:09;;;;;;;11.85;3.10;;;;;;;;;;5050582;28;20037;-62
2023/03/24 04:04:36;;;;;;;9.30;2.67;;;;;;;;;;5050899;28;20041;-62
2023/03/24 04:07:21;;;;;;;6.25;2.63;;;;;;;;;;5033752;28;20043;-62
2023/03/24 04:10:02;;;;;;;5.57;2.28;;;;;;;;;;5048235;28;20083;-62
2023/03/24 04:12:49;;;;;;;10.07;2.83;;;;;;;;;;5047914;28;20041;-62
2023/03/24 04:15:15;;;;;;;12.27;3.95;;;;;;;;;;5039304;28;20091;-63
2023/03/24 04:17:53;;;;;;;7.53;2.63;;;;;;;;;;5039873;28;20045;-62
2023/03/24 04:20:20;;;;;;;8.55;3.13;;;;;;;;;;5032806;28;20462;-63
2023/03/24 04:22:46;;;;;;;10.80;3.80;;;;;;;;;;5051330;28;20045;-62
2023/03/24 04:25:15;;;;;;;16.15;3.22;;;;;;;;;;5042566;28;20060;-62
2023/03/24 04:27:47;;;;;;;6.72;3.92;;;;;;;;;;5029583;28;20049;-62
2023/03/24 04:30:23;;;;;;;6.80;2.67;;;;;;;;;;5051334;28;20052;-62
2023/03/24 04:32:57;;;;;;;9.32;2.83;;;;;;;;;;5028497;28;20127;-62
2023/03/24 04:35:33;;;;;;;7.93;3.25;;;;;;;;;;5050730;28;20087;-62
2023/03/24 04:38:05;;;;;;;19.23;3.42;;;;;;;;;;5042953;28;20482;-62
2023/03/24 04:40:32;;;;;;;7.00;3.07;;;;;;;;;;5027861;28;20220;-62
2023/03/24 04:43:00;;;;;;;9.75;3.00;;;;;;;;;;5050697;28;20044;-62
2023/03/24 04:45:26;;;;;;;10.23;3.40;;;;;;;;;;5049849;28;20029;-62
2023/03/24 04:47:55;;;;;;;14.30;3.90;;;;;;;;;;5048143;28;20045;-62
2023/03/24 04:50:33;;;;;;;11.10;4.30;;;;;;;;;;5044646;28;20045;-63
2023/03/24 04:52:59;;;;;;;12.50;4.00;;;;;;;;;;5045175;28;20045;-63
2023/03/24 04:55:26;;;;;;;9.18;4.00;;;;;;;;;;5048474;28;20122;-62
2023/03/24 04:57:52;;;;;;;9.90;3.33;;;;;;;;;;5040700;28;20531;-62
2023/03/24 05:00:18;;;;;;;8.85;4.10;;;;;;;;;;5026091;28;20037;-62
2023/03/24 05:02:44;;;;;;;6.13;2.60;;;;;;;;;;5034012;28;20040;-62
2023/03/24 05:05:11;;;;;;;13.43;3.22;;;;;;;;;;5046132;28;20049;-62
2023/03/24 05:07:37;;;;;;;9.50;4.22;;;;;;;;;;5014462;28;20076;-62
2023/03/24 05:10:03;;;;;;;12.13;4.93;;;;;;;;;;5003783;28;20048;-62
2023/03/24 05:12:29;;;;;;;17.30;4.28;;;;;;;;;;5044209;28;20503;-62
2023/03/24 05:14:56;;;;;;;9.75;4.28;;;;;;;;;;5044467;28;20326;-62
2023/03/24 05:17:22;;;;;;;10.25;3.92;;;;;;;;;;5045349;28;20033;-62
2023/03/24 05:19:48;;;;;;;13.55;3.58;;;;;;;;;;5030529;28;20033;-62
2023/03/24 05:22:14;;;;;;;9.98;3.67;;;;;;;;;;5048136;28;20068;-62
2023/03/24 05:24:40;;;;;;;13.40;3.70;;;11.50;99.90;;;;;;5046483;28;20108;-62
2023/03/24 05:27:06;;;;;;;15.70;3.75;;;;;;;;;;5046218;28;20059;-62
2023/03/24 05:29:33;;;;;;;11.90;4.32;;;;;;;;;;5043632;28;20049;-62
2023/03/24 05:31:59;;;;;;;10.02;3.45;;;;;;;;;;5050110;28;20498;-61
2023/03/24 05:34:25;;;;;;;12.57;4.25;;;;;;;;;;5047320;28;20041;-62
2023/03/24 05:36:51;;;;;;;13.02;3.58;;;;;;;;;;5044567;28;20040;-62
2023/03/24 05:39:17;;;;;;;16.17;5.63;;;;;;;;;;5027290;28;20591;-62
2023/03/24 05:41:43;;;;;;;12.93;4.50;;;;;;;;;;5043745;28;20041;-62
2023/03/24 05:44:09;;;;;;;12.38;4.20;;;;;;;;;;5041382;28;20518;-62
2023/03/24 05:46:37;;;;;;;7.93;3.47;;;;;;;;;;5047413;28;20052;-62
2023/03/24 05:49:03;;;;;;;10.65;3.17;;;;;;;;;;5030365;28;20482;-62
2023/03/24 05:51:29;;;;;;;10.27;3.88;;;;;;;;;;5042348;28;20047;-62
2023/03/24 05:53:55;;;;;;;13.50;3.50;;;;;;;;;;5027889;28;20162;-63
2023/03/24 05:56:21;;;;;;;13.77;3.78;;;;;;;;;;5045212;28;20084;-62
2023/03/24 05:58:48;;;;;;;11.02;3.80;;;;;;;;;;5041898;28;20037;-63
2023/03/24 06:01:17;;;;;;;13.40;4.80;;;;;;;;;;5043764;28;20040;-62
2023/03/24 06:03:43;;;;;;;9.23;3.80;;;;;;;;;;5048268;28;20044;-62
2023/03/24 06:06:15;;;;;;;18.13;3.83;;;;;;;;;;5048862;28;20330;-62
2023/03/24 06:08:43;;;;;;;17.58;3.83;;;;;;;;;;5045624;28;20067;-62
2023/03/24 06:11:10;;;;;;;14.23;4.20;;;;;;;;;;5045676;28;20430;-62
2023/03/24 06:13:36;;;;;;;10.60;3.47;;;;;;;;;;5047047;28;20441;-62
2023/03/24 06:16:02;;;;;;;14.43;4.32;;;;;;;;;;5043239;28;20045;-62
2023/03/24 06:18:32;;;;;;;12.43;4.13;;;;;;;;;;5024820;28;20056;-62
2023/03/24 06:20:58;;;;;;;17.63;4.00;;;;;;;;;;5029912;28;20032;-62
2023/03/24 06:23:26;;;;;;;8.02;3.08;;;;;;;;;;5046559;28;20086;-62
2023/03/24 06:25:57;;;;;;;12.02;3.80;;;;;;;;;;5041249;28;20136;-62
2023/03/24 06:28:29;;;;;;;14.77;5.18;;;;;;;;;;5040383;28;20056;-62
2023/03/24 06:30:57;;;;;;;13.30;4.25;;;;;;;;;;5044329;28;20037;-62
2023/03/24 06:33:24;;;;;;;8.85;3.05;;;;;;;;;;5045839;28;20154;-62
2023/03/24 06:35:53;;;;;;;9.43;3.90;;;;;;;;;;5045962;28;20147;-62
2023/03/24 06:38:21;;;;;;;14.77;4.43;;;;;;;;;;5045274;28;20740;-62
2023/03/24 06:40:47;;;;;;;11.48;3.25;;;;;;;;;;5043056;28;20036;-62
2023/03/24 06:43:13;;;;;;;10.30;3.88;;;;;;;;;;5044037;28;20033;-62
2023/03/24 06:45:39;;;;;;;11.10;3.92;;;;;;;;;;5042448;28;20418;-62
2023/03/24 06:48:05;;;;;;;12.75;4.10;;;;;;;;;;5042000;28;20040;-62
2023/03/24 06:50:34;;;;;;;15.63;4.15;;;;;;;;;;5039082;28;20083;-62
2023/03/24 06:53:01;;;;;;;10.77;4.13;;;;;;;;;;5043146;28;20101;-62
2023/03/24 06:55:27;;;;;;;19.77;4.18;;;;;;;;;;5029774;28;20425;-62
2023/03/24 06:57:53;;;;;;;13.07;4.85;;;;;;;;;;5036857;28;20083;-62
2023/03/24 07:00:20;;;;;;;10.15;4.47;;;;;;;;;;5021636;28;20061;-62
2023/03/24 07:02:46;;;;;;;12.48;4.43;;;;;;;;;;5035562;28;20080;-62
2023/03/24 07:05:12;;;;;;;13.40;4.18;;;;;;;;;;5044055;28;20072;-62
2023/03/24 07:07:40;;;;;;;14.65;4.50;;;;;;;;;;5047292;28;20047;-62
2023/03/24 07:10:06;;;;;;;16.02;4.55;;;;;;;;;;5045432;28;20041;-62
2023/03/24 07:12:34;;;;;;;12.48;3.90;;;;;;;;;;5047698;28;20074;-62
2023/03/24 07:15:02;;;;;;;21.65;4.50;;;;;;;;;;5044942;28;20033;-62
2023/03/24 07:17:29;;;;;;;20.33;6.35;;;;;;;;;;5047784;28;20053;-62
2023/03/24 07:19:55;;;;;;;12.73;4.30;;;;;;;;;;5042261;28;20034;-62
2023/03/24 07:22:21;;;;;;;14.65;4.88;;;;;;;;;;5043842;28;20106;-62
2023/03/24 07:24:47;;;;;;;13.27;4.35;;;;;;;;;;5047408;28;20133;-62
2023/03/24 07:27:13;;;;;;;18.88;5.13;;;;;;;;;;5030366;28;20494;-62
2023/03/24 07:29:39;;;;;;;10.77;4.70;;;;;;;;;;5052231;28;20032;-62
2023/03/24 07:32:06;;;;;;;15.73;5.00;;;;;;;;;;5033971;28;20047;-62
2023/03/24 07:34:35;;;;;;;13.15;4.50;;;;;;;;;;5047675;28;20037;-62
2023/03/24 07:37:01;;;;;;;16.33;4.68;;;;;;;;;;5048042;28;20052;-62
2023/03/24 07:39:27;;;;;;;20.13;5.43;;;;;;;;;;5048438;28;20502;-62
2023/03/24 07:41:53;;;;;;;24.15;7.47;;;;;;;;;;5047450;28;20068;-62
2023/03/24 07:44:19;;;;;;;20.60;6.38;;;;;;;;;;5023250;28;20080;-62
2023/03/24 07:46:45;;;;;;;19.85;5.45;;;;;;;;;;5047199;28;20049;-62
2023/03/24 07:49:12;;;;;;;14.38;4.93;;;;;;;;;;5041651;28;20084;-62
2023/03/24 07:51:38;;;;;;;24.08;5.30;;;;;;;;;;5042776;28;20224;-62
2023/03/24 07:54:04;;;;;;;21.83;6.60;;;;;;;;;;5045594;28;20038;-62
2023/03/24 07:56:30;;;;;;;24.42;5.68;;;;;;;;;;5042409;28;20461;-62
2023/03/24 07:58:57;;;;;;;15.35;5.30;;;;;;;;;;5037764;28;20047;-62
2023/03/24 08:01:23;;;;;;;18.88;5.80;;;;;;;;;;5036735;28;20060;-62
2023/03/24 08:03:53;;;;;;;23.23;5.55;;;;;;;;;;5044438;28;20037;-62
2023/03/24 08:06:19;;;;;;;13.38;5.38;;;;;;;;;;5027153;28;20163;-67
2023/03/24 08:08:45;;;;;;;20.17;6.65;;;;;;;;;;5043829;28;20379;-62
2023/03/24 08:11:11;;;;;;;15.32;5.30;;;;;;;;;;5037548;28;20046;-62
2023/03/24 08:13:37;;;;;;;15.70;6.20;;;;;;;;;;5033755;28;20048;-62
2023/03/24 08:16:03;;;;;;;21.75;6.13;;;;;;;;;;5017265;28;20320;-62
2023/03/24 08:18:33;;;;;;;17.85;5.28;;;;;;;;;;4997978;28;20065;-62
2023/03/24 08:21:01;;;;;;;22.42;6.30;;;;;;;;;;5040014;28;20041;-62
2023/03/24 08:23:27;;;;;;;17.08;6.20;;;;;;;;;;5048747;28;20041;-62
2023/03/24 08:25:53;;;;;;;24.33;5.97;;;;;;;;;;5053909;28;20085;-62
2023/03/24 08:28:19;;;;;;;18.98;6.68;;;;;;;;;;5032425;28;20095;-63
2023/03/24 08:30:46;;;;;;;28.25;6.85;;;;;;;;;;5044674;28;20499;-62
2023/03/24 08:33:13;;;;;;;11.70;5.60;;;;;;;;;;5041225;28;20483;-62
2023/03/24 08:35:40;;;;;;;18.00;5.35;;;;;;;;;;5041499;28;20045;-62
2023/03/24 08:38:07;;;;;;;17.65;5.57;;;;;;;;;;5048477;28;20082;-62
2023/03/24 08:40:33;;;;;;;13.48;4.00;;;;;;;;;;5049962;28;20064;-62
2023/03/24 08:43:02;;;;;;;22.42;7.13;;;;;;;;;;5041984;28;20103;-62
2023/03/24 08:45:29;;;;;;;14.00;4.35;;;;;;;;;;5045357;28;20056;-62
2023/03/24 08:47:57;;;;;;;10.98;5.07;;;;;;;;;;5049500;28;20414;-64
2023/03/24 08:50:26;;;;;;;27.73;6.10;;;;;;;;;;5048596;28;20064;-62
2023/03/24 08:52:53;;;;;;;21.30;6.22;;;;;;;;;;5029253;28;20088;-62
2023/03/24 08:55:20;;;;;;;18.25;6.05;;;;;;;;;;5033013;28;20131;-62
2023/03/24 08:57:47;;;;;;;21.08;6.43;;;;;;;;;;5035671;28;20066;-62
2023/03/24 09:00:14;;;;;;;15.75;5.97;;;;;;;;;;5050544;28;20045;-62
2023/03/24 09:02:45;;;;;;;18.98;5.25;;;;;;;;;;5046321;28;20095;-62
2023/03/24 09:05:12;;;;;;;16.48;6.15;;;;;;;;;;5033418;28;20044;-62
2023/03/24 09:07:38;;;;;;;17.30;5.50;;;;;;;;;;5046089;28;20037;-62
2023/03/24 09:10:08;;;;;;;15.15;4.78;;;;;;;;;;5048550;28;20040;-62
2023/03/24 09:12:38;;;;;;;15.15;4.93;;;;;;;;;;5051732;28;20107;-62
2023/03/24 09:15:05;;;;;;;14.40;4.82;;;;;;;;;;5049055;28;20033;-62
2023/03/24 09:17:31;;;;;;;20.92;6.55;;;;;;;;;;5026686;28;20612;-62
2023/03/24 09:19:57;;;;;;;17.45;4.78;;;;;;;;;;5047037;28;20494;-64
2023/03/24 09:22:23;;;;;;;21.15;5.05;;;;;;;;;;5029003;28;20534;-62
2023/03/24 09:24:50;;;;;;;18.67;5.63;;;;;;;;;;5048443;28;20179;-62
2023/03/24 09:27:16;;;;;;;15.13;5.47;;;;;;;;;;5056474;28;20049;-62
2023/03/24 09:29:43;;;;;;;16.33;6.13;;;;;;;;;;5028997;28;20487;-62
2023/03/24 09:32:09;;;;;;;15.80;5.07;;;;;;;;;;5049178;28;20479;-63
2023/03/24 09:34:37;;;;;;;14.15;4.25;;;;;;;;;;5047192;28;20045;-62
2023/03/24 09:37:04;;;;;;;20.23;5.03;;;;;;;;;;5048965;28;20572;-62
2023/03/24 09:39:31;;;;;;;13.55;4.03;;;;;;;;;;5048289;28;20125;-62
2023/03/24 09:41:56;;;;;;;9.18;4.95;;;9.50;99.90;;;;;;5047990;28;20033;-62
2023/03/24 09:44:29;;;;;;;11.98;4.20;;;;;;;;;;5044872;28;20086;-62
2023/03/24 09:47:10;;;;;;;15.38;5.18;;;;;;;;;;5046448;28;20037;-62
2023/03/24 09:49:38;;;;;;;16.35;4.43;;;;;;;;;;5039315;28;20068;-62
2023/03/24 09:52:06;;;;;;;19.73;5.50;;;;;;;;;;5046386;28;20041;-65
2023/03/24 09:54:35;;;;;;;12.57;4.28;;;;;;;;;;5048251;28;20511;-62
2023/03/24 09:57:01;;;;;;;13.82;4.43;;;;;;;;;;5032173;28;20033;-62
2023/03/24 09:59:35;;;;;;;22.85;5.00;;;;;;;;;;5049478;28;20037;-62
2023/03/24 10:02:04;;;;;;;17.90;4.85;;;;;;;;;;5050900;28;20037;-62
2023/03/24 10:04:31;;;;;;;14.27;4.35;;;;;;;;;;5044235;28;20040;-62
2023/03/24 10:07:36;;;;;;;14.40;5.20;;;11.20;99.90;;;;;;5044789;28;20475;-62
2023/03/24 10:10:02;;;;;;;19.45;5.28;;;;;;;;;;4953548;28;20040;-62
2023/03/24 10:12:35;;;;;;;15.88;4.40;;;;;;;;;;5030611;28;20543;-62
2023/03/24 10:15:10;;;;;;;15.30;3.65;;;;;;;;;;5039024;28;20462;-62
2023/03/24 10:17:36;;;;;;;10.77;4.68;;;;;;;;;;5020340;28;20045;-62
2023/03/24 10:20:08;;;;;;;17.30;5.25;;;;;;;;;;5046141;28;20444;-62
2023/03/24 10:22:36;;;;;;;14.82;5.57;;;;;;;;;;5028518;28;20041;-62
2023/03/24 10:25:05;;;;;;;10.35;4.50;;;;;;;;;;5042965;28;20053;-63
2023/03/24 10:27:37;;;;;;;18.52;5.03;;;;;;;;;;5047002;28;20774;-62
2023/03/24 10:30:11;;;;;;;7.85;3.70;;;;;;;;;;5045711;28;20406;-62
2023/03/24 10:32:38;;;;;;;14.95;4.38;;;;;;;;;;5043018;28;20186;-62
2023/03/24 10:35:08;;;;;;;10.10;4.10;;;;;;;;;;5016429;28;20137;-62
2023/03/24 10:37:35;;;;;;;19.95;6.07;;;;;;;;;;5026467;28;20113;-62
2023/03/24 10:40:05;;;;;;;29.77;7.22;;;;;;;;;;5026772;28;20123;-62
2023/03/24 10:42:34;;;;;;;16.42;4.40;;;;;;;;;;5040155;28;20086;-62
2023/03/24 10:45:00;;;;;;;16.40;3.90;;;;;;;;;;5048686;28;20051;-62
2023/03/24 10:47:27;;;;;;;14.52;5.70;;;;;;;;;;5050466;28;20489;-62
2023/03/24 10:49:56;;;;;;;13.45;4.88;;;;;;;;;;5048602;28;20044;-62
2023/03/24 10:52:23;;;;;;;15.55;4.70;;;;;;;;;;5024093;28;20053;-62
2023/03/24 10:55:13;;;;;;;12.00;3.63;;;;;;;;;;5048180;28;20044;-63
2023/03/24 10:57:42;;;;;;;13.40;4.38;;;;;;;;;;5047437;28;20044;-63
2023/03/24 11:00:13;;;;;;;13.50;4.45;;;;;;;;;;5047417;28;20049;-62
2023/03/24 11:02:41;;;;;;;16.70;4.82;;;;;;;;;;5032476;28;20033;-62
2023/03/24 11:05:14;;;;;;;13.75;5.38;;;;;;;;;;5043876;28;20042;-63
2023/03/24 11:07:48;;;;;;;10.80;4.28;;;;;;;;;;5048556;28;20045;-63
2023/03/24 11:10:17;;;;;;;12.20;4.18;;;;;;;;;;5047359;28;20045;-62
2023/03/24 11:13:06;;;;;;;13.48;4.43;;;;;;;;;;5047877;28;20526;-62
2023/03/24 11:15:35;;;;;;;11.55;5.47;;;;;;;;;;5041708;28;20120;-63
2023/03/24 11:18:10;;;;;;;9.20;4.43;;;;;;;;;;5044423;28;20037;-63
2023/03/24 11:20:40;;;;;;;11.50;3.83;;;;;;;;;;5046088;28;20033;-62
2023/03/24 11:23:10;;;;;;;16.80;4.85;;;;;;;;;;5036537;28;20506;-62
2023/03/24 11:25:37;;;;;;;10.07;4.65;;;;;;;;;;5047877;28;20092;-62
2023/03/24 11:28:15;;;;;;;12.98;3.50;;;;;;;;;;5047647;28;20106;-62
2023/03/24 11:30:52;;;;;;;21.60;4.90;;;;;;;;;;5034078;28;20091;-62
2023/03/24 11:33:18;;;;;;;15.68;4.85;;;;;;;;;;5031886;28;20076;-62
2023/03/24 11:35:44;;;;;;;12.13;3.67;;;;;;;;;;5044777;28;20052;-63
2023/03/24 11:38:15;;;;;;;14.43;4.35;;;;;;;;;;5042871;28;20498;-62
2023/03/24 11:40:52;;;;;;;12.43;3.58;;;;;;;;;;5033491;28;20036;-63
2023/03/24 11:43:21;;;;;;;13.82;5.55;;;;;;;;;;5044844;28;20064;-62
2023/03/24 11:45:53;;;;;;;9.10;3.88;;;;;;;;;;5040062;28;20033;-62
2023/03/24 11:48:22;;;;;;;14.03;3.53;;;;;;;;;;5037375;28;20387;-63
2023/03/24 11:50:50;;;;;;;12.50;4.07;;;;;;;;;;5049041;28;20115;-62
2023/03/24 11:53:24;;;;;;;16.15;4.20;;;;;;;;;;5028876;28;20095;-62
2023/03/24 11:56:09;;;;;;;11.52;3.95;;;;;;;;;;5037691;28;20053;-62
2023/03/24 11:58:55;;;;;;;11.02;3.17;;;;;;;;;;5040057;28;20037;-63
2023/03/24 12:01:21;;;;;;;10.25;3.83;;;;;;;;;;5027653;28;20041;-62
2023/03/24 12:04:05;;;;;;;17.33;4.10;;;;;;;;;;5050213;28;20123;-63
2023/03/24 12:06:35;;;;;;;8.73;3.60;;;;;;;;;;5046090;28;20037;-62
2023/03/24 12:09:04;;;;;;;10.10;4.28;;;;;;;;;;5033632;28;20066;-63
2023/03/24 12:11:39;;;;;;;11.57;4.22;;;;;;;;;;5048197;28;20041;-63
2023/03/24 12:14:05;;;;;;;8.80;3.15;;;;;;;;;;5046708;28;20483;-63
2023/03/24 12:16:35;;;;;;;7.80;3.13;;;;;;;;;;5046862;28;20454;-62
2023/03/24 12:19:01;;;;;;;12.48;4.28;;;;;;;;;;5058473;28;20043;-62
2023/03/24 12:21:33;;;;;;;13.35;3.72;;;;;;;;;;5050370;28;20160;-62
2023/03/24 12:24:06;;;;;;;20.55;4.80;;;;;;;;;;5032130;28;20056;-63
2023/03/24 12:26:34;;;;;;;16.27;6.05;;;;;;;;;;5018731;28;20057;-63
2023/03/24 12:29:00;;;;;;;19.65;5.32;;;;;;;;;;5037379;28;20507;-63
2023/03/24 12:31:46;;;;;;;8.98;4.05;;;;;;;;;;5032260;28;20051;-62
2023/03/24 12:34:15;;;;;;;12.98;4.32;;;;;;;;;;5049637;28;20133;-62
2023/03/24 12:37:17;;;;;;;8.77;3.85;;;;;;;;;;5046408;28;20042;-63
2023/03/24 12:39:55;;;;;;;9.63;3.42;;;;;;;;;;4983890;28;20065;-63
2023/03/24 12:42:23;;;;;;;16.65;3.53;;;;;;;;;;5037115;28;20076;-62
2023/03/24 12:44:58;;;;;;;9.93;3.88;;;;;;;;;;5036353;28;20042;-62
2023/03/24 12:47:36;;;;;;;10.60;3.65;;;;;;;;;;5049146;28;20048;-62
2023/03/24 12:50:04;;;;;;;14.63;4.13;;;;;;;;;;5040746;28;20033;-62
2023/03/24 12:52:30;;;;;;;13.90;5.78;;;;;;;;;;5042929;28;20041;-62
2023/03/24 12:55:16;;;;;;;11.63;3.83;;;;;;;;;;5051917;28;20041;-62
2023/03/24 12:58:06;;;;;;;11.13;4.30;;;;;;;;;;5021501;28;20033;-62
2023/03/24 13:00:47;;;;;;;13.25;5.28;;;;;;;;;;4991954;28;20052;-62
2023/03/24 13:03:34;;;;;;;13.48;3.72;;;;;;;;;;5022105;28;20533;-62
2023/03/24 13:06:07;;;;;;;11.30;3.90;;;;;;;;;;5029333;28;20049;-62
2023/03/24 13:08:37;;;;;;;10.18;4.18;;;;;;;;;;5043872;28;20037;-62
2023/03/24 13:11:05;;;;;;;10.88;4.03;;;;;;;;;;5030184;28;20260;-62
2023/03/24 13:13:38;;;;;;;14.10;3.33;;;;;;;;;;5039795;28;20437;-62
2023/03/24 13:16:06;;;;;;;10.90;4.35;;;;;;;;;;5048175;28;20067;-62
2023/03/24 13:18:35;;;;;;;15.07;3.88;;;;;;;;;;5053326;28;20507;-63
2023/03/24 13:21:21;;;;;;;9.23;3.53;;;;;;;;;;5031576;28;20032;-62
2023/03/24 13:23:56;;;;;;;14.23;4.05;;;;;;;;;;5041895;28;20041;-62
2023/03/24 13:26:23;;;;;;;16.77;4.55;;;;;;;;;;5043713;28;20060;-62
2023/03/24 13:28:51;;;;;;;13.20;3.90;;;;;;;;;;5046121;28;20059;-62
2023/03/24 13:31:19;;;;;;;14.50;4.47;;;;;;;;;;5031091;28;20222;-62
2023/03/24 13:33:45;;;;;;;9.55;3.85;;;;;;;;;;5045602;28;20441;-62
2023/03/24 13:36:24;;;;;;;16.73;5.60;;;;;;;;;;5046471;28;20090;-62
2023/03/24 13:38:52;;;;;;;12.68;4.47;;;;;;;;;;5045989;28;20124;-62
2023/03/24 13:41:23;;;;;;;12.48;4.28;;;;;;;;;;5038680;28;20757;-62
2023/03/24 13:44:09;;;;;;;11.23;4.05;;;;;;;;;;5038647;28;20053;-62
2023/03/24 13:46:36;;;;;;;9.38;3.97;;;;;;;;;;5046066;28;20053;-62
2023/03/24 13:49:05;;;;;;;13.45;4.28;;;;;;;;;;5043141;28;20499;-62
2023/03/24 13:51:32;;;;;;;18.60;4.45;;;;;;;;;;5020072;28;20037;-62
2023/03/24 13:53:59;;;;;;;16.90;4.18;;;;;;;;;;5044047;28;20519;-62
2023/03/24 13:56:31;;;;;;;23.58;5.07;;;;;;;;;;5051146;28;20093;-62
2023/03/24 13:58:57;;;;;;;11.27;4.72;;;;;;;;;;5048340;28;20033;-62
2023/03/24 14:01:32;;;;;;;14.32;4.50;;;;;;;;;;5048321;28;20055;-62
2023/03/24 14:04:13;;;;;;;13.07;4.70;;;;;;;;;;5043883;28;20062;-62
2023/03/24 14:06:59;;;;;;;13.63;4.03;;;;;;;;;;5038691;28;20033;-62
2023/03/24 14:09:27;;;;;;;13.63;4.35;;;;;;;;;;5020830;28;20049;-62
2023/03/24 14:12:02;;;;;;;10.18;4.03;;;;;;;;;;5041971;28;20098;-62
2023/03/24 14:14:29;;;;;;;20.08;6.25;;;;;;;;;;5043535;28;20080;-62
2023/03/24 14:17:04;;;;;;;12.98;4.53;;;;;;;;;;5043588;28;20055;-62
2023/03/24 14:20:06;;;;;;;10.10;4.53;;;;;;;;;;5046676;28;20060;-63
2023/03/24 14:22:39;;;;;;;14.95;4.30;;;;;;;;;;4998910;28;20052;-62
2023/03/24 14:25:05;;;;;;;11.65;4.10;;;;;;;;;;5046108;28;20093;-62
2023/03/24 14:27:37;;;;;;;16.60;5.95;;;;;;;;;;5045192;28;20056;-62
2023/03/24 14:30:18;;;;;;;12.98;3.83;;;;;;;;;;5040002;28;20037;-62
2023/03/24 14:32:46;;;;;;;13.38;3.67;;;;;;;;;;5043600;28;20048;-62
2023/03/24 14:35:33;;;;;;;16.20;4.25;;;;;;;;;;5043312;28;20098;-62
2023/03/24 14:38:04;;;;;;;12.32;3.45;;;;;;;;;;5019968;28;20033;-62
2023/03/24 14:41:00;;;;;;;8.23;3.50;;;;;;;;;;5027162;28;20041;-62
2023/03/24 14:43:49;;;;;;;11.73;3.10;;;;;;;;;;5029072;28;20347;-62
2023/03/24 14:46:15;;;;;;;13.23;3.53;;;;;;;;;;5007052;28;20037;-62
2023/03/24 14:49:17;;;;;;;12.23;3.92;;;;;;;;;;5038108;28;20091;-62